createdAt,value
2022-12-14T00:01:21.203Z,1.20
2022-12-14T00:03:48.467Z,1.21
2022-12-14T00:06:22.856Z,1.08
2022-12-14T00:08:50.404Z,1.36
2022-12-14T00:11:20.072Z,0.93
2022-12-14T00:13:48.811Z,0.36
2022-12-14T00:16:17.002Z,0.56
2022-12-14T00:18:45.544Z,0.57
2022-12-14T00:21:13.410Z,0.70
2022-12-14T00:23:41.356Z,0.62
2022-12-14T00:26:13.040Z,0.84
2022-12-14T00:28:39.878Z,0.87
2022-12-14T00:31:06.813Z,0.83
2022-12-14T00:33:34.541Z,0.76
2022-12-14T00:36:01.853Z,0.73
2022-12-14T00:38:29.081Z,0.54
2022-12-14T00:41:00.121Z,0.68
2022-12-14T00:43:31.251Z,1.11
2022-12-14T00:46:00.289Z,0.61
2022-12-14T00:48:34.237Z,0.78
2022-12-14T00:51:09.101Z,0.79
2022-12-14T00:53:41.700Z,0.55
2022-12-14T00:56:19.687Z,0.48
2022-12-14T00:58:55.188Z,0.78
2022-12-14T01:01:30.930Z,0.75
2022-12-14T01:04:19.229Z,0.58
2022-12-14T01:06:51.319Z,0.97
2022-12-14T01:09:20.364Z,0.96
2022-12-14T01:11:47.561Z,0.69
2022-12-14T01:14:16.161Z,0.37
2022-12-14T01:16:45.483Z,1.27
2022-12-14T01:19:13.966Z,0.60
2022-12-14T01:21:43.556Z,0.51
2022-12-14T01:24:20.578Z,0.80
2022-12-14T01:26:50.005Z,0.31
2022-12-14T01:29:18.211Z,0.43
2022-12-14T01:31:48.763Z,0.79
2022-12-14T01:34:17.790Z,1.13
2022-12-14T01:36:46.803Z,0.53
2022-12-14T01:39:15.291Z,0.47
2022-12-14T01:41:52.470Z,0.29
2022-12-14T01:44:24.943Z,0.93
2022-12-14T01:47:12.788Z,1.31
2022-12-14T01:49:40.777Z,0.93
2022-12-14T01:52:11.110Z,0.48
2022-12-14T01:54:40.347Z,0.61
2022-12-14T01:57:07.079Z,0.96
2022-12-14T01:59:36.442Z,0.51
2022-12-14T02:02:05.844Z,0.46
2022-12-14T02:04:37.031Z,0.56
2022-12-14T02:07:03.927Z,0.70
2022-12-14T02:09:33.758Z,1.17
2022-12-14T02:12:00.378Z,0.56
2022-12-14T02:14:27.303Z,0.76
2022-12-14T02:16:55.424Z,0.64
2022-12-14T02:19:22.311Z,0.76
2022-12-14T02:21:48.968Z,0.86
2022-12-14T02:24:25.902Z,0.67
2022-12-14T02:27:12.235Z,1.06
2022-12-14T02:29:41.928Z,0.92
2022-12-14T02:32:27.900Z,0.99
2022-12-14T02:35:12.934Z,0.83
2022-12-14T02:37:59.563Z,0.79
2022-12-14T02:40:36.602Z,0.85
2022-12-14T02:43:03.347Z,0.91
2022-12-14T02:45:42.548Z,0.87
2022-12-14T02:48:14.857Z,1.11
2022-12-14T02:50:46.790Z,0.88
2022-12-14T02:53:26.596Z,0.63
2022-12-14T02:55:54.154Z,0.51
2022-12-14T02:58:26.166Z,0.74
2022-12-14T03:00:54.276Z,0.65
2022-12-14T03:03:21.098Z,0.59
2022-12-14T03:06:02.051Z,0.72
2022-12-14T03:08:31.732Z,0.42
2022-12-14T03:11:01.949Z,0.66
2022-12-14T03:13:41.161Z,1.02
2022-12-14T03:16:22.998Z,0.83
2022-12-14T03:18:49.735Z,0.38
2022-12-14T03:21:20.747Z,0.61
2022-12-14T03:23:49.798Z,0.65
2022-12-14T03:26:22.632Z,0.62
2022-12-14T03:28:55.344Z,0.78
2022-12-14T03:31:34.874Z,0.71
2022-12-14T03:34:03.803Z,0.49
2022-12-14T03:36:33.384Z,0.46
2022-12-14T03:39:02.484Z,0.94
2022-12-14T03:41:37.561Z,0.92
2022-12-14T03:44:13.476Z,0.92
2022-12-14T03:46:52.981Z,0.68
2022-12-14T03:49:36.438Z,0.67
2022-12-14T03:52:07.971Z,1.03
2022-12-14T03:54:57.964Z,0.68
2022-12-14T03:57:38.716Z,0.80
2022-12-14T04:00:10.877Z,0.50
2022-12-14T04:02:40.964Z,0.54
2022-12-14T04:05:12.646Z,1.17
2022-12-14T04:07:51.977Z,0.29
2022-12-14T04:10:47.579Z,0.23
2022-12-14T04:13:38.615Z,0.36
2022-12-14T04:16:27.936Z,0.88
2022-12-14T04:19:02.542Z,0.61
2022-12-14T04:21:45.079Z,0.75
2022-12-14T04:24:53.093Z,0.73
2022-12-14T04:27:43.043Z,0.41
2022-12-14T04:30:10.735Z,0.04
2022-12-14T04:32:37.555Z,0.51
2022-12-14T04:35:12.569Z,0.78
2022-12-14T04:37:40.661Z,0.71
2022-12-14T04:40:10.838Z,0.43
2022-12-14T04:42:44.525Z,0.63
2022-12-14T04:45:20.042Z,0.56
2022-12-14T04:47:51.304Z,0.92
2022-12-14T04:50:26.984Z,0.73
2022-12-14T04:53:01.575Z,0.86
2022-12-14T04:55:36.212Z,0.51
2022-12-14T04:58:07.722Z,0.46
2022-12-14T05:00:35.873Z,0.56
2022-12-14T05:03:21.934Z,0.54
2022-12-14T05:05:56.846Z,0.43
2022-12-14T05:08:30.034Z,0.27
2022-12-14T05:11:30.248Z,0.45
2022-12-14T05:13:51.123Z,0.56
2022-12-14T05:16:19.224Z,0.25
2022-12-14T05:18:46.510Z,0.33
2022-12-14T05:21:32.119Z,0.59
2022-12-14T05:24:00.300Z,0.71
2022-12-14T05:26:27.468Z,0.41
2022-12-14T05:28:54.308Z,0.60
2022-12-14T05:31:21.532Z,0.55
2022-12-14T05:33:48.265Z,0.81
2022-12-14T05:36:15.237Z,0.70
2022-12-14T05:38:42.292Z,0.53
2022-12-14T05:41:09.039Z,0.59
2022-12-14T05:43:36.147Z,0.52
2022-12-14T05:46:04.248Z,-0.08
2022-12-14T05:48:31.635Z,0.04
2022-12-14T05:51:09.054Z,0.48
2022-12-14T05:53:36.704Z,0.45
2022-12-14T05:56:04.092Z,0.59
2022-12-14T05:58:33.133Z,0.51
2022-12-14T06:01:19.058Z,0.56
2022-12-14T06:03:47.706Z,0.25
2022-12-14T06:06:14.968Z,0.69
2022-12-14T06:08:43.055Z,0.59
2022-12-14T06:11:11.014Z,0.32
2022-12-14T06:13:38.908Z,0.12
2022-12-14T06:16:10.119Z,0.32
2022-12-14T06:18:37.001Z,-0.01
2022-12-14T06:21:03.853Z,0.26
2022-12-14T06:23:30.968Z,0.13
2022-12-14T06:25:57.933Z,0.27
2022-12-14T06:28:24.693Z,0.12
2022-12-14T06:30:51.474Z,0.07
2022-12-14T06:33:18.373Z,0.07
2022-12-14T06:35:45.877Z,-0.03
2022-12-14T06:38:13.063Z,-0.11
2022-12-14T06:43:39.343Z,0.00
2022-12-14T06:46:15.108Z,0.32
2022-12-14T06:52:06.286Z,0.33
2022-12-14T06:54:37.436Z,0.48
2022-12-14T06:57:05.307Z,0.06
2022-12-14T06:59:33.036Z,-0.03
2022-12-14T07:02:03.041Z,0.24
2022-12-14T07:04:30.127Z,0.69
2022-12-14T07:06:56.916Z,0.53
2022-12-14T07:09:23.652Z,0.27
2022-12-14T07:11:51.768Z,0.08
2022-12-14T07:14:19.354Z,0.73
2022-12-14T07:33:03.706Z,1.13
2022-12-14T07:35:30.735Z,0.47
2022-12-14T07:37:58.028Z,0.54
2022-12-14T07:40:25.472Z,0.25
2022-12-14T07:42:52.282Z,0.38
2022-12-14T07:45:19.052Z,0.45
2022-12-14T07:47:45.853Z,0.75
2022-12-14T07:50:12.724Z,0.46
2022-12-14T07:52:40.567Z,0.33
2022-12-14T07:55:07.937Z,0.59
2022-12-14T07:57:34.757Z,0.27
2022-12-14T08:00:01.675Z,0.37
2022-12-14T08:02:28.747Z,0.48
2022-12-14T08:04:55.650Z,0.38
2022-12-14T08:07:22.641Z,0.80
2022-12-14T08:09:49.645Z,0.41
2022-12-14T08:12:18.553Z,0.21
2022-12-14T08:14:45.451Z,0.44
2022-12-14T08:17:13.022Z,0.44
2022-12-14T08:35:40.473Z,0.07
2022-12-14T08:38:08.754Z,0.28
2022-12-14T08:40:36.110Z,0.05
2022-12-14T08:43:02.904Z,-0.12
2022-12-14T08:45:30.042Z,0.26
2022-12-14T08:48:00.113Z,0.11
2022-12-14T08:50:27.532Z,0.10
2022-12-14T08:52:54.283Z,0.44
2022-12-14T08:55:27.576Z,0.22
2022-12-14T08:57:56.389Z,0.35
2022-12-14T09:00:23.073Z,0.21
2022-12-14T09:02:51.322Z,0.19
2022-12-14T09:05:18.202Z,0.26
2022-12-14T09:07:45.290Z,0.14
2022-12-14T09:10:12.292Z,0.17
2022-12-14T09:12:39.894Z,0.31
2022-12-14T09:15:09.171Z,0.40
2022-12-14T09:17:35.979Z,0.54
2022-12-14T09:20:05.733Z,0.63
2022-12-14T09:22:32.480Z,0.30
2022-12-14T09:25:02.442Z,0.27
2022-12-14T09:27:29.296Z,0.16
2022-12-14T09:29:56.140Z,0.28
2022-12-14T09:32:25.120Z,0.58
2022-12-14T09:34:54.012Z,0.27
2022-12-14T09:37:20.940Z,0.54
2022-12-14T09:39:47.668Z,0.46
2022-12-14T09:42:35.715Z,0.67
2022-12-14T09:45:20.358Z,0.22
2022-12-14T09:47:54.613Z,0.40
2022-12-14T09:50:24.953Z,0.38
2022-12-14T09:52:56.980Z,0.76
2022-12-14T09:55:23.782Z,1.05
2022-12-14T09:58:03.035Z,0.88
2022-12-14T10:00:40.714Z,1.04
2022-12-14T10:03:16.802Z,1.14
2022-12-14T10:05:52.958Z,1.14
2022-12-14T10:08:36.544Z,0.84
2022-12-14T10:11:22.395Z,0.89
2022-12-14T10:14:13.591Z,0.65
2022-12-14T10:16:59.168Z,0.71
2022-12-14T10:19:36.806Z,0.58
2022-12-14T10:22:12.503Z,0.76
2022-12-14T10:24:44.045Z,0.66
2022-12-14T10:27:17.694Z,0.81
2022-12-14T10:29:50.634Z,0.93
2022-12-14T10:32:22.712Z,0.90
2022-12-14T10:34:50.591Z,0.76
2022-12-14T10:37:20.044Z,0.91
2022-12-14T10:39:51.820Z,1.18
2022-12-14T10:42:33.516Z,0.83
2022-12-14T10:48:06.199Z,1.29
2022-12-14T10:50:53.861Z,1.07
2022-12-14T10:53:27.412Z,1.25
2022-12-14T10:55:57.041Z,1.29
2022-12-14T10:58:23.739Z,1.13
2022-12-14T11:00:54.941Z,1.72
2022-12-14T11:03:22.124Z,1.74
2022-12-14T11:05:52.280Z,1.36
2022-12-14T11:08:37.755Z,1.80
2022-12-14T11:11:11.556Z,1.55
2022-12-14T11:13:47.191Z,1.86
2022-12-14T11:16:36.336Z,1.91
2022-12-14T11:19:04.852Z,1.55
2022-12-14T11:21:33.061Z,2.20
2022-12-14T11:23:59.941Z,1.92
2022-12-14T11:26:36.848Z,2.28
2022-12-14T11:29:06.193Z,1.82
2022-12-14T11:31:40.621Z,2.37
2022-12-14T11:34:22.146Z,2.54
2022-12-14T11:36:51.181Z,1.90
2022-12-14T11:39:22.513Z,2.32
2022-12-14T11:41:58.212Z,2.02
2022-12-14T11:44:26.545Z,2.28
2022-12-14T11:46:59.501Z,2.18
2022-12-14T11:49:38.709Z,2.21
2022-12-14T11:52:05.396Z,2.25
2022-12-14T11:54:38.231Z,1.87
2022-12-14T11:57:12.815Z,2.33
2022-12-14T11:59:43.516Z,2.31
2022-12-14T12:02:24.915Z,2.41
2022-12-14T12:04:57.714Z,2.35
2022-12-14T12:07:29.333Z,2.21
2022-12-14T12:10:00.744Z,2.13
2022-12-14T12:12:27.444Z,2.23
2022-12-14T12:15:01.099Z,1.84
2022-12-14T12:17:40.289Z,1.81
2022-12-14T12:20:20.625Z,1.74
2022-12-14T12:22:49.445Z,1.74
2022-12-14T12:25:29.726Z,1.87
2022-12-14T12:28:15.548Z,1.92
2022-12-14T12:30:47.428Z,2.11
2022-12-14T12:33:34.422Z,2.12
2022-12-14T12:36:06.125Z,1.86
2022-12-14T12:38:40.129Z,2.16
2022-12-14T12:41:15.749Z,2.16
2022-12-14T12:43:50.318Z,1.85
2022-12-14T12:46:20.425Z,2.04
2022-12-14T12:48:49.895Z,2.07
2022-12-14T12:51:25.087Z,1.98
2022-12-14T12:54:14.796Z,2.41
2022-12-14T12:56:44.669Z,2.18
2022-12-14T12:59:20.003Z,2.20
2022-12-14T13:01:51.201Z,2.46
2022-12-14T13:04:28.060Z,1.92
2022-12-14T13:07:05.624Z,1.96
2022-12-14T13:09:59.303Z,2.40
2022-12-14T13:12:35.671Z,2.14
2022-12-14T13:15:04.234Z,2.60
2022-12-14T13:17:37.561Z,2.30
2022-12-14T13:20:06.471Z,1.62
2022-12-14T13:22:34.631Z,2.09
2022-12-14T13:25:08.534Z,2.52
2022-12-14T13:27:38.327Z,2.38
2022-12-14T13:30:07.190Z,2.30
2022-12-14T13:32:37.578Z,2.01
2022-12-14T13:35:25.532Z,1.93
2022-12-14T13:38:03.760Z,2.56
2022-12-14T13:40:51.252Z,2.39
2022-12-14T13:43:31.303Z,1.91
2022-12-14T13:46:04.905Z,2.00
2022-12-14T13:48:36.427Z,1.87
2022-12-14T13:51:05.455Z,1.94
2022-12-14T13:53:32.874Z,1.91
2022-12-14T13:56:00.535Z,2.14
2022-12-14T13:58:39.713Z,2.07
2022-12-14T14:01:08.300Z,1.96
2022-12-14T14:03:37.327Z,2.55
2022-12-14T14:06:13.586Z,2.31
2022-12-14T14:08:42.351Z,1.98
2022-12-14T14:11:36.331Z,2.04
2022-12-14T14:14:23.273Z,1.70
2022-12-14T14:17:03.647Z,1.59
2022-12-14T14:19:37.795Z,2.03
2022-12-14T14:22:25.263Z,1.76
2022-12-14T14:24:57.415Z,1.43
2022-12-14T14:27:28.959Z,1.42
2022-12-14T14:29:56.323Z,1.97
2022-12-14T14:32:40.212Z,2.14
2022-12-14T14:35:25.670Z,2.35
2022-12-14T14:37:56.560Z,2.53
2022-12-14T14:40:51.422Z,2.46
2022-12-14T14:43:32.474Z,2.01
2022-12-14T14:46:02.112Z,2.80
2022-12-14T14:48:41.684Z,2.59
2022-12-14T14:51:15.160Z,2.54
2022-12-14T14:53:42.965Z,1.98
2022-12-14T14:56:28.263Z,2.18
2022-12-14T14:59:14.885Z,2.36
2022-12-14T15:01:50.883Z,2.73
2022-12-14T15:04:24.701Z,2.58
2022-12-14T15:06:54.433Z,2.58
2022-12-14T15:09:33.128Z,2.61
2022-12-14T15:12:07.773Z,2.60
2022-12-14T15:14:43.225Z,2.79
2022-12-14T15:17:22.252Z,2.92
2022-12-14T15:19:51.952Z,3.34
2022-12-14T15:22:26.181Z,3.26
2022-12-14T15:24:54.502Z,3.27
2022-12-14T15:27:29.324Z,3.10
2022-12-14T15:29:59.819Z,2.89
2022-12-14T15:32:26.619Z,3.05
2022-12-14T15:34:53.283Z,3.26
2022-12-14T15:37:38.739Z,3.33
2022-12-14T15:40:07.552Z,3.51
2022-12-14T15:42:34.453Z,3.11
2022-12-14T15:45:05.393Z,3.28
2022-12-14T15:47:32.097Z,2.48
2022-12-14T15:50:15.656Z,2.31
2022-12-14T15:52:43.152Z,2.61
2022-12-14T15:55:28.388Z,2.85
2022-12-14T15:57:55.289Z,2.48
2022-12-14T16:00:22.342Z,2.39
2022-12-14T16:02:49.164Z,2.65
2022-12-14T16:05:18.932Z,2.85
2022-12-14T16:07:48.240Z,2.70
2022-12-14T16:10:33.144Z,2.48
2022-12-14T16:13:04.171Z,2.46
2022-12-14T16:15:31.011Z,2.47
2022-12-14T16:18:04.630Z,2.75
2022-12-14T16:20:32.845Z,3.02
2022-12-14T16:22:59.652Z,3.24
2022-12-14T16:25:28.443Z,2.53
2022-12-14T16:27:55.200Z,2.78
2022-12-14T16:30:25.562Z,3.19
2022-12-14T16:32:54.302Z,3.03
2022-12-14T16:35:25.695Z,2.69
2022-12-14T16:37:57.898Z,3.05
2022-12-14T16:40:27.438Z,3.26
2022-12-14T16:42:54.096Z,3.18
2022-12-14T16:45:36.329Z,2.88
2022-12-14T16:48:07.856Z,2.84
2022-12-14T16:53:22.165Z,3.02
2022-12-14T16:56:14.436Z,3.13
2022-12-14T16:58:43.266Z,3.34
2022-12-14T17:01:10.376Z,3.22
2022-12-14T17:03:38.528Z,3.13
2022-12-14T17:06:06.748Z,2.95
2022-12-14T17:08:34.096Z,2.45
2022-12-14T17:11:04.249Z,2.40
2022-12-14T17:13:31.345Z,2.62
2022-12-14T17:16:09.162Z,2.46
2022-12-14T17:18:40.675Z,2.30
2022-12-14T17:21:08.816Z,2.42
2022-12-14T17:23:37.727Z,2.59
2022-12-14T17:26:04.488Z,2.53
2022-12-14T17:28:35.739Z,2.58
2022-12-14T17:31:02.906Z,2.84
2022-12-14T17:33:30.501Z,2.52
2022-12-14T17:35:57.585Z,2.50
2022-12-14T17:38:24.563Z,2.22
2022-12-14T17:40:51.899Z,2.38
2022-12-14T17:43:20.176Z,2.96
2022-12-14T17:45:47.195Z,2.40
2022-12-14T17:48:15.047Z,2.80
2022-12-14T17:50:43.193Z,2.49
2022-12-14T17:53:13.575Z,2.51
2022-12-14T17:55:40.777Z,2.27
2022-12-14T17:58:07.552Z,2.53
2022-12-14T18:00:53.122Z,2.22
2022-12-14T18:03:21.144Z,2.60
2022-12-14T18:05:52.418Z,2.27
2022-12-14T18:08:19.899Z,2.34
2022-12-14T18:10:49.752Z,2.51
2022-12-14T18:13:16.432Z,2.31
2022-12-14T18:15:49.682Z,2.46
2022-12-14T18:18:18.078Z,2.52
2022-12-14T18:20:49.534Z,2.79
2022-12-14T18:23:16.949Z,2.66
2022-12-14T18:25:48.054Z,2.82
2022-12-14T18:28:14.946Z,2.85
2022-12-14T18:30:49.275Z,2.89
2022-12-14T18:33:21.606Z,2.66
2022-12-14T18:35:49.384Z,2.97
2022-12-14T18:38:16.217Z,2.78
2022-12-14T18:40:49.502Z,2.59
2022-12-14T18:43:26.619Z,2.92
2022-12-14T18:45:54.990Z,3.07
2022-12-14T18:48:22.521Z,3.25
2022-12-14T18:50:50.192Z,3.57
2022-12-14T18:53:18.221Z,2.82
2022-12-14T18:55:47.850Z,2.98
2022-12-14T18:58:19.769Z,3.20
2022-12-14T19:00:46.865Z,3.08
2022-12-14T19:03:16.202Z,2.65
2022-12-14T19:05:43.778Z,3.09
2022-12-14T19:08:11.042Z,2.83
2022-12-14T19:10:40.210Z,2.82
2022-12-14T19:13:07.547Z,3.27
2022-12-14T19:15:35.200Z,3.19
2022-12-14T19:18:01.865Z,2.56
2022-12-14T19:20:29.372Z,3.70
2022-12-14T19:22:56.550Z,3.77
2022-12-14T19:25:24.027Z,3.64
2022-12-14T19:30:38.996Z,3.16
2022-12-14T19:33:05.777Z,3.82
2022-12-14T19:35:32.877Z,3.92
2022-12-14T19:37:59.549Z,3.81
2022-12-14T19:40:27.206Z,3.81
2022-12-14T19:42:53.956Z,3.77
2022-12-14T19:45:20.797Z,3.93
2022-12-14T19:47:47.648Z,3.94
2022-12-14T19:50:16.070Z,3.16
2022-12-14T19:52:43.347Z,3.79
2022-12-14T19:55:10.734Z,3.69
2022-12-14T19:57:40.186Z,3.68
2022-12-14T20:00:08.377Z,3.86
2022-12-14T20:02:35.373Z,3.74
2022-12-14T20:05:02.207Z,3.57
2022-12-14T20:07:28.981Z,3.45
2022-12-14T20:09:55.738Z,3.12
2022-12-14T20:12:22.427Z,2.96
2022-12-14T20:14:49.457Z,2.74
2022-12-14T20:17:16.675Z,2.95
2022-12-14T20:19:43.473Z,3.41
2022-12-14T20:22:10.284Z,3.19
2022-12-14T20:24:37.257Z,3.49
2022-12-14T20:27:04.655Z,3.76
2022-12-14T20:29:31.299Z,3.46
2022-12-14T20:31:58.378Z,4.14
2022-12-14T20:34:25.247Z,3.91
2022-12-14T20:36:51.979Z,4.27
2022-12-14T20:39:18.783Z,4.51
2022-12-14T20:41:45.596Z,4.59
2022-12-14T20:44:14.024Z,4.78
2022-12-14T20:46:47.642Z,4.83
2022-12-14T20:49:16.326Z,4.80
2022-12-14T20:51:43.837Z,4.89
2022-12-14T20:54:11.850Z,4.72
2022-12-14T20:56:38.666Z,4.80
2022-12-14T20:59:05.544Z,4.81
2022-12-14T21:01:32.456Z,4.81
2022-12-14T21:04:02.571Z,4.95
2022-12-14T21:06:33.233Z,4.78
2022-12-14T21:09:06.508Z,4.78
2022-12-14T21:11:55.711Z,5.03
2022-12-14T21:14:25.874Z,5.09
2022-12-14T21:16:52.769Z,4.59
2022-12-14T21:19:30.564Z,4.67
2022-12-14T21:21:57.276Z,3.40
2022-12-14T21:24:53.188Z,3.37
2022-12-14T21:27:22.225Z,3.53
2022-12-14T21:29:49.057Z,3.70
2022-12-14T21:32:16.059Z,3.16
2022-12-14T21:34:43.370Z,3.23
2022-12-14T21:37:10.145Z,3.52
2022-12-14T21:39:37.181Z,3.51
2022-12-14T21:42:13.366Z,3.31
2022-12-14T21:44:43.048Z,3.13
2022-12-14T21:47:16.687Z,2.87
2022-12-14T21:49:45.276Z,3.38
2022-12-14T21:52:14.296Z,2.97
2022-12-14T21:54:41.119Z,3.22
2022-12-14T21:57:26.340Z,2.89
2022-12-14T21:59:53.038Z,2.67
2022-12-14T22:02:22.224Z,2.54
2022-12-14T22:04:49.566Z,2.89
2022-12-14T22:07:17.108Z,2.88
2022-12-14T22:09:44.218Z,2.74
2022-12-14T22:12:17.335Z,2.41
2022-12-14T22:14:44.045Z,2.62
2022-12-14T22:17:11.986Z,2.58
2022-12-14T22:19:38.677Z,2.79
2022-12-14T22:22:05.630Z,3.36
2022-12-14T22:24:32.417Z,3.62
2022-12-14T22:26:59.684Z,3.73
2022-12-14T22:29:26.371Z,3.73
2022-12-14T22:31:53.087Z,3.53
2022-12-14T22:34:23.676Z,3.74
2022-12-14T22:36:52.788Z,3.76
2022-12-14T22:39:19.567Z,3.24
2022-12-14T22:41:47.090Z,3.72
2022-12-14T22:44:14.048Z,3.38
2022-12-14T22:46:41.026Z,3.49
2022-12-14T22:49:08.787Z,2.98
2022-12-14T22:51:35.675Z,2.97
2022-12-14T22:54:03.399Z,3.45
2022-12-14T22:56:39.406Z,2.98
2022-12-14T22:59:12.137Z,2.97
2022-12-14T23:01:39.816Z,3.50
2022-12-14T23:04:07.669Z,3.67
2022-12-14T23:06:34.455Z,2.74
2022-12-14T23:09:19.828Z,2.90
2022-12-14T23:12:08.873Z,2.76
2022-12-14T23:14:57.618Z,2.78
2022-12-14T23:17:43.488Z,2.91
2022-12-14T23:20:29.410Z,3.21
2022-12-14T23:23:14.661Z,3.25
2022-12-14T23:26:00.139Z,3.23
2022-12-14T23:28:49.801Z,3.02
2022-12-14T23:31:37.039Z,2.50
2022-12-14T23:34:22.277Z,3.36
2022-12-14T23:37:12.689Z,3.03
2022-12-14T23:40:00.665Z,2.57
2022-12-14T23:42:45.696Z,3.05
2022-12-14T23:45:30.829Z,2.16
2022-12-14T23:48:15.977Z,2.20
2022-12-14T23:51:01.088Z,2.20
2022-12-14T23:53:50.097Z,2.78
2022-12-14T23:56:36.280Z,2.73
2022-12-14T23:59:24.908Z,2.70
